S/y Tenaz — 2IPC9 — position and weather

sailwx.info

Track history (hours):
 
Tides and Currents Weather Stations Pressure Air Temp Water Temp Dewpoint Dewpoint Depression Visibility Wind Speed Wind Dir Waves Ship Positions

S/y Tenaz

Last reported at 2018-Aug-16 20:52 UTC. Time now 2018-Aug-21 04:19 UTC.
Position N 38°53' E 008°48'.

Length 39 m; draft 4 m.

Type: Sailing vessel. MMSI: 235111618.

Date/timePositionNaut miles runAvg speedWind from/ knotsBaromVisibWave heightAir tempDewpointWater temp
2018-Aug-16 20:52N 38°53' E 008°48'0 0.0
2018-Aug-16 20:29N 38°53' E 008°48'0 0.0
2018-Aug-16 19:59N 38°53' E 008°48'0 0.0
2018-Aug-16 19:28N 38°53' E 008°48'0 0.0
2018-Aug-16 18:59N 38°53' E 008°48'0 0.0
2018-Aug-16 18:30N 38°53' E 008°48'0 0.0
2018-Aug-16 18:00N 38°53' E 008°48'2 3.4
2018-Aug-16 17:28N 38°54' E 008°46'0 0.7
2018-Aug-16 16:59N 38°55' E 008°47'0 0.0
2018-Aug-16 16:26N 38°55' E 008°47'0 0.0
2018-Aug-16 15:56N 38°55' E 008°47'0 0.0
2018-Aug-16 15:29N 38°55' E 008°47'0 0.0
2018-Aug-16 14:59N 38°55' E 008°47'0 0.0
2018-Aug-16 14:29N 38°55' E 008°47'0 0.0
2018-Aug-16 13:59N 38°55' E 008°47'0 0.0
2018-Aug-16 13:29N 38°55' E 008°47'0 0.0
2018-Aug-16 12:59N 38°55' E 008°47'0 0.0
2018-Aug-16 12:30N 38°55' E 008°47'0 0.0
2018-Aug-16 11:59N 38°55' E 008°47'0 0.0
2018-Aug-16 11:29N 38°55' E 008°47'0 0.0
2018-Aug-16 11:00N 38°55' E 008°47'3 5.1
2018-Aug-16 10:30N 38°52' E 008°48'189 7.5
2018-Aug-15 09:07N 38°12' E 012°45'210.3
2018-Aug-15 08:58N 38°12' E 012°47'510.3
2018-Aug-15 08:30N 38°12' E 012°53'610.7
2018-Aug-15 07:58N 38°13' E 013°00'510.5
2018-Aug-15 07:30N 38°13' E 013°06'510.4
2018-Aug-15 07:00N 38°13' E 013°13'510.2
2018-Aug-15 06:30N 38°14' E 013°19'510.1
2018-Aug-15 06:00N 38°09' E 013°23'1 1.1
2018-Aug-15 05:30N 38°09' E 013°22'0 0.0
2018-Aug-15 05:00N 38°09' E 013°22'0 0.0
2018-Aug-15 04:30N 38°09' E 013°22'0 0.0
2018-Aug-15 04:00N 38°09' E 013°22'0 0.0
2018-Aug-15 03:30N 38°09' E 013°22'0 0.0
2018-Aug-15 03:00N 38°09' E 013°22'0 0.0
2018-Aug-15 02:29N 38°09' E 013°22'0 0.0
2018-Aug-15 01:59N 38°09' E 013°22'0 0.0
2018-Aug-15 01:30N 38°09' E 013°22'0 0.1
2018-Aug-15 01:00N 38°09' E 013°22'0 0.1
2018-Aug-15 00:30N 38°09' E 013°22'0 0.1
2018-Aug-15 00:00N 38°09' E 013°22'0 0.0
2018-Aug-14 23:30N 38°09' E 013°22'0 0.0
2018-Aug-14 23:00N 38°09' E 013°22'0 0.0
2018-Aug-14 22:30N 38°09' E 013°22'0 0.0
2018-Aug-14 22:00N 38°09' E 013°22'0 0.0
2018-Aug-14 21:31N 38°09' E 013°22'0 0.0
2018-Aug-14 21:00N 38°09' E 013°22'0 0.0
2018-Aug-14 20:30N 38°09' E 013°22'0 0.0
2018-Aug-14 20:00N 38°09' E 013°22'0 0.0
2018-Aug-14 19:30N 38°09' E 013°22'0 0.0
2018-Aug-14 19:00N 38°09' E 013°22'0 0.0
2018-Aug-14 18:30N 38°09' E 013°22'0 0.0
2018-Aug-14 18:00N 38°09' E 013°22'0 0.0
2018-Aug-14 17:30N 38°09' E 013°22'0 0.0
2018-Aug-14 17:00N 38°09' E 013°22'0 0.0
2018-Aug-14 16:30N 38°09' E 013°22'2 4.3
2018-Aug-14 16:00N 38°09' E 013°25'611.5
2018-Aug-14 15:30N 38°10' E 013°32'611.1
2018-Aug-14 15:00N 38°11' E 013°39'611.2
2018-Aug-14 14:30N 38°11' E 013°47'5411.8
2018-Aug-14 09:57N 38°15' E 014°55'611.8
2018-Aug-14 09:26N 38°16' E 015°03'511.8
2018-Aug-14 09:00N 38°16' E 015°09'510.2
2018-Aug-14 08:31N 38°15' E 015°15'2 3.7
2018-Aug-14 07:57N 38°13' E 015°15'0 0.0
2018-Aug-14 07:27N 38°13' E 015°15'0 0.0
2018-Aug-14 06:57N 38°13' E 015°15'0 0.0
2018-Aug-14 06:21N 38°13' E 015°15'0 0.0
2018-Aug-14 05:57N 38°13' E 015°15'0 0.0
2018-Aug-14 05:27N 38°13' E 015°15'0 0.0
2018-Aug-14 04:57N 38°13' E 015°15'0 0.0
2018-Aug-14 04:27N 38°13' E 015°15'0 0.0
2018-Aug-14 03:57N 38°13' E 015°15'0 0.0
2018-Aug-14 03:27N 38°13' E 015°15'0 0.0
2018-Aug-14 02:57N 38°13' E 015°15'0 0.0
2018-Aug-14 02:27N 38°13' E 015°15'0 0.0
2018-Aug-14 01:57N 38°13' E 015°15'0 0.0
2018-Aug-14 01:27N 38°13' E 015°15'0 0.0
2018-Aug-14 00:57N 38°13' E 015°15'0 0.0
2018-Aug-14 00:27N 38°13' E 015°15'0 0.0
2018-Aug-13 23:57N 38°13' E 015°15'0 0.0
2018-Aug-13 23:27N 38°13' E 015°15'0 0.0
2018-Aug-13 22:57N 38°13' E 015°15'0 0.0
2018-Aug-13 22:27N 38°13' E 015°15'0 0.0
2018-Aug-13 21:57N 38°13' E 015°15'0 0.0
2018-Aug-13 21:27N 38°13' E 015°15'0 0.0
2018-Aug-13 20:57N 38°13' E 015°15'0 0.0
2018-Aug-13 20:27N 38°13' E 015°15'0 0.1
2018-Aug-13 19:59N 38°13' E 015°15'1 1.9
2018-Aug-13 19:30N 38°14' E 015°16'511.0
2018-Aug-13 19:00N 38°16' E 015°22'611.1
2018-Aug-13 18:30N 38°18' E 015°29'610.5
2018-Aug-13 17:58N 38°18' E 015°36'5 7.4
2018-Aug-13 17:21N 38°15' E 015°40'410.2
2018-Aug-13 16:56N 38°11' E 015°37'810.7
2018-Aug-13 16:11N 38°03' E 015°38'311.5
2018-Aug-13 15:57N 38°01' E 015°38'  
Track history (hours):
 
Tides and Currents Weather Stations Pressure Air Temp Water Temp Dewpoint Dewpoint Depression Visibility Wind Speed Wind Dir Waves Ship Positions

S/y Tenaz

Last reported at 2018-Aug-16 20:52 UTC. Time now 2018-Aug-21 04:19 UTC.
Position N 38°53' E 008°48'.

Length 39 m; draft 4 m.

Type: Sailing vessel. MMSI: 235111618.

Date/timePositionNaut miles runAvg speedWind from/ knotsBaromVisibWave heightAir tempDewpointWater temp
2018-Aug-16 20:52N 38°53' E 008°48'0 0.0
2018-Aug-16 20:29N 38°53' E 008°48'0 0.0
2018-Aug-16 19:59N 38°53' E 008°48'0 0.0
2018-Aug-16 19:28N 38°53' E 008°48'0 0.0
2018-Aug-16 18:59N 38°53' E 008°48'0 0.0
2018-Aug-16 18:30N 38°53' E 008°48'0 0.0
2018-Aug-16 18:00N 38°53' E 008°48'2 3.4
2018-Aug-16 17:28N 38°54' E 008°46'0 0.7
2018-Aug-16 16:59N 38°55' E 008°47'0 0.0
2018-Aug-16 16:26N 38°55' E 008°47'0 0.0
2018-Aug-16 15:56N 38°55' E 008°47'0 0.0
2018-Aug-16 15:29N 38°55' E 008°47'0 0.0
2018-Aug-16 14:59N 38°55' E 008°47'0 0.0
2018-Aug-16 14:29N 38°55' E 008°47'0 0.0
2018-Aug-16 13:59N 38°55' E 008°47'0 0.0
2018-Aug-16 13:29N 38°55' E 008°47'0 0.0
2018-Aug-16 12:59N 38°55' E 008°47'0 0.0
2018-Aug-16 12:30N 38°55' E 008°47'0 0.0
2018-Aug-16 11:59N 38°55' E 008°47'0 0.0
2018-Aug-16 11:29N 38°55' E 008°47'0 0.0
2018-Aug-16 11:00N 38°55' E 008°47'3 5.1
2018-Aug-16 10:30N 38°52' E 008°48'189 7.5
2018-Aug-15 09:07N 38°12' E 012°45'210.3
2018-Aug-15 08:58N 38°12' E 012°47'510.3
2018-Aug-15 08:30N 38°12' E 012°53'610.7
2018-Aug-15 07:58N 38°13' E 013°00'510.5
2018-Aug-15 07:30N 38°13' E 013°06'510.4
2018-Aug-15 07:00N 38°13' E 013°13'510.2
2018-Aug-15 06:30N 38°14' E 013°19'510.1
2018-Aug-15 06:00N 38°09' E 013°23'1 1.1
2018-Aug-15 05:30N 38°09' E 013°22'0 0.0
2018-Aug-15 05:00N 38°09' E 013°22'0 0.0
2018-Aug-15 04:30N 38°09' E 013°22'0 0.0
2018-Aug-15 04:00N 38°09' E 013°22'0 0.0
2018-Aug-15 03:30N 38°09' E 013°22'0 0.0
2018-Aug-15 03:00N 38°09' E 013°22'0 0.0
2018-Aug-15 02:29N 38°09' E 013°22'0 0.0
2018-Aug-15 01:59N 38°09' E 013°22'0 0.0
2018-Aug-15 01:30N 38°09' E 013°22'0 0.1
2018-Aug-15 01:00N 38°09' E 013°22'0 0.1
2018-Aug-15 00:30N 38°09' E 013°22'0 0.1
2018-Aug-15 00:00N 38°09' E 013°22'0 0.0
2018-Aug-14 23:30N 38°09' E 013°22'0 0.0
2018-Aug-14 23:00N 38°09' E 013°22'0 0.0
2018-Aug-14 22:30N 38°09' E 013°22'0 0.0
2018-Aug-14 22:00N 38°09' E 013°22'0 0.0
2018-Aug-14 21:31N 38°09' E 013°22'0 0.0
2018-Aug-14 21:00N 38°09' E 013°22'0 0.0
2018-Aug-14 20:30N 38°09' E 013°22'0 0.0
2018-Aug-14 20:00N 38°09' E 013°22'0 0.0
2018-Aug-14 19:30N 38°09' E 013°22'0 0.0
2018-Aug-14 19:00N 38°09' E 013°22'0 0.0
2018-Aug-14 18:30N 38°09' E 013°22'0 0.0
2018-Aug-14 18:00N 38°09' E 013°22'0 0.0
2018-Aug-14 17:30N 38°09' E 013°22'0 0.0
2018-Aug-14 17:00N 38°09' E 013°22'0 0.0
2018-Aug-14 16:30N 38°09' E 013°22'2 4.3
2018-Aug-14 16:00N 38°09' E 013°25'611.5
2018-Aug-14 15:30N 38°10' E 013°32'611.1
2018-Aug-14 15:00N 38°11' E 013°39'611.2
2018-Aug-14 14:30N 38°11' E 013°47'5411.8
2018-Aug-14 09:57N 38°15' E 014°55'611.8
2018-Aug-14 09:26N 38°16' E 015°03'511.8
2018-Aug-14 09:00N 38°16' E 015°09'510.2
2018-Aug-14 08:31N 38°15' E 015°15'2 3.7
2018-Aug-14 07:57N 38°13' E 015°15'0 0.0
2018-Aug-14 07:27N 38°13' E 015°15'0 0.0
2018-Aug-14 06:57N 38°13' E 015°15'0 0.0
2018-Aug-14 06:21N 38°13' E 015°15'0 0.0
2018-Aug-14 05:57N 38°13' E 015°15'0 0.0
2018-Aug-14 05:27N 38°13' E 015°15'0 0.0
2018-Aug-14 04:57N 38°13' E 015°15'0 0.0
2018-Aug-14 04:27N 38°13' E 015°15'0 0.0
2018-Aug-14 03:57N 38°13' E 015°15'0 0.0
2018-Aug-14 03:27N 38°13' E 015°15'0 0.0
2018-Aug-14 02:57N 38°13' E 015°15'0 0.0
2018-Aug-14 02:27N 38°13' E 015°15'0 0.0
2018-Aug-14 01:57N 38°13' E 015°15'0 0.0
2018-Aug-14 01:27N 38°13' E 015°15'0 0.0
2018-Aug-14 00:57N 38°13' E 015°15'0 0.0
2018-Aug-14 00:27N 38°13' E 015°15'0 0.0
2018-Aug-13 23:57N 38°13' E 015°15'0 0.0
2018-Aug-13 23:27N 38°13' E 015°15'0 0.0
2018-Aug-13 22:57N 38°13' E 015°15'0 0.0
2018-Aug-13 22:27N 38°13' E 015°15'0 0.0
2018-Aug-13 21:57N 38°13' E 015°15'0 0.0
2018-Aug-13 21:27N 38°13' E 015°15'0 0.0
2018-Aug-13 20:57N 38°13' E 015°15'0 0.0
2018-Aug-13 20:27N 38°13' E 015°15'0 0.1
2018-Aug-13 19:59N 38°13' E 015°15'1 1.9
2018-Aug-13 19:30N 38°14' E 015°16'511.0
2018-Aug-13 19:00N 38°16' E 015°22'611.1
2018-Aug-13 18:30N 38°18' E 015°29'610.5
2018-Aug-13 17:58N 38°18' E 015°36'5 7.4
2018-Aug-13 17:21N 38°15' E 015°40'410.2
2018-Aug-13 16:56N 38°11' E 015°37'810.7
2018-Aug-13 16:11N 38°03' E 015°38'311.5
2018-Aug-13 15:57N 38°01' E 015°38'  

Dump ship's entire track history